Station: Salmon Gums Rs

  Atmospheric Gas Attenuation - ITU Rec 676-11   --------------- db/100km ---------------
Date Time Temp RH % AH g/m3 Dew Point Wind Direction Speed kph Gust kph Barometer mB Rainfall Since 9am 24GHz 47GHz 76GHz 122GHz 134GHz 241GHz
04 05:00 1.7 94 5.12 0.8 2 4 1013.1 4.2 12.6 23.6 31.1 81.0 64.5 218.2
04 04:50 2 94 5.23 1.1 0 0 1013.1 4.2 12.8 23.7 31.4 81.9 65.8 222.6
04 04:40 1.8 94 5.16 0.9 6 6 1013.1 4.2 12.7 23.6 31.2 81.3 65.0 219.8
04 04:30 1.9 93 5.14 0.9 2 6 1013.1 4.2 12.6 23.5 31.1 81.0 64.7 218.6
04 04:20 2.3 92 5.22 1.2 0 0 1013.1 4.2 12.8 23.6 31.2 81.5 65.4 221.2
04 04:10 2.7 92 5.37 1.6 0 0 1013.1 4.2 13.1 23.7 31.7 82.7 67.1 227.2
04 04:00 3.5 93 5.72 2.5 0 0 1013.1 4.2 13.8 24.1 32.8 85.7 71.1 241.4
04 03:40 2.5 92 5.29 1.3 9 11 1013.1 4.2 12.9 23.6 31.4 82.0 66.2 224.0
04 03:30 3.4 93 5.69 2.4 9 11 1013.1 4.2 13.8 24.0 32.7 85.4 70.8 240.3
04 03:20 3.5 94 5.79 2.6 9 11 1013.1 4.2 14.0 24.2 33.1 86.4 72.1 244.8
04 03:10 2.7 94 5.48 1.8 4 6 1013.1 4.2 13.3 23.9 32.1 83.9 68.6 232.4
04 03:00 1.8 93 5.1 0.8 2 4 1013.1 4.2 12.6 23.5 30.9 80.7 64.2 216.9
04 02:50 1.6 93 5.03 0.6 2 6 1013.1 4.2 12.4 23.4 30.7 80.1 63.4 214.2
04 02:40 1.9 93 5.14 0.9 0 0 1013.1 4.2 12.6 23.5 31.1 81.0 64.7 218.6
04 02:30 2 93 5.17 1 0 4 1013.1 4.2 12.7 23.6 31.1 81.2 65.0 219.7
04 02:20 1.4 92 4.91 0.2 6 6 1013.1 4.2 12.2 23.3 30.3 79.0 62.0 209.0
04 02:10 2.2 92 5.19 1 4 4 1013.1 4.2 12.7 23.5 31.1 81.2 65.1 220.1
04 02:00 2.4 92 5.26 1.2 2 6 1013.1 4.2 12.9 23.6 31.4 81.8 65.9 222.8
04 01:50 2.6 92 5.33 1.4 6 6 1013.1 4.2 13.0 23.7 31.6 82.4 66.6 225.6
04 01:30 3.7 92 5.74 2.5 2 2 1013.1 4.2 13.9 24.0 32.8 85.7 71.2 241.8
04 01:20 3.8 92 5.78 2.6 2 2 1013.1 4.2 14.0 24.1 32.9 86.0 71.6 243.3
04 01:10 4.4 92 6.01 3.2 2 4 1013.1 4.2 14.4 24.3 33.6 87.8 74.2 252.4
04 01:00 4 92 5.85 2.8 2 4 1013.1 4.2 14.1 24.1 33.1 86.5 72.4 246.0
04 00:50 4.1 92 5.89 2.9 4 6 1013.1 4.2 14.2 24.2 33.2 86.9 72.8 247.6
04 00:40 5 92 6.26 3.8 4 4 1013.1 4.2 14.9 24.5 34.4 89.9 77.0 262.3
04 00:30 5.5 92 6.47 4.3 0 2 1013.1 4.2 15.4 24.8 35.0 91.6 79.3 270.6
04 00:20 5.5 91 6.4 4.1 0 0 1013.1 4.2 15.2 24.6 34.7 90.9 78.4 267.3
04 00:10 6.1 91 6.65 4.7 0 0 1013.1 4.2 15.7 24.9 35.5 92.9 81.2 277.1
04 00:00 6.7 91 6.92 5.3 0 4 1013.1 4.2 16.3 25.2 36.4 95.2 84.2 287.9
03 23:50 7.3 91 7.19 6 0 0 1013.1 4.2 16.9 25.4 37.2 97.4 87.2 298.5
03 23:40 7.5 91 7.29 6.2 7 9 1013.1 4.2 17.1 25.6 37.5 98.3 88.4 302.6
03 23:30 7.3 92 7.27 6.1 4 9 1013.1 4.2 17.0 25.6 37.5 98.3 88.3 302.4
03 23:20 7.3 91 7.19 5.9 2 4 1013.1 4.2 16.9 25.4 37.2 97.4 87.2 298.5
03 23:10 7.1 91 7.1 5.7 0 0 1013.1 4.2 16.7 25.4 36.9 96.7 86.2 295.0
03 23:00 7.1 91 7.1 5.7 0 4 1013.1 4 16.7 25.4 36.9 96.7 86.2 295.0
03 22:50 7.1 91 7.1 5.7 0 0 1013.1 4 16.7 25.4 36.9 96.7 86.2 295.0
03 22:40 7.1 91 7.1 5.7 0 0 1013.1 4 16.7 25.4 36.9 96.7 86.2 295.0
03 22:30 6.7 90 6.84 5.2 2 4 1013.1 4 16.1 25.0 36.0 94.3 83.1 284.0
03 22:20 7.5 90 7.21 5.9 0 0 1013.1 4 16.9 25.4 37.2 97.4 87.3 298.7
03 22:10 7.8 90 7.35 6.2 0 0 1013.1 4 17.2 25.6 37.6 98.6 88.9 304.3
03 22:00 8 90 7.44 6.5 0 0 1013.1 4 17.4 25.7 37.9 99.3 89.9 307.8
03 21:50 8.1 90 7.49 6.5 0 0 1013.1 4 17.5 25.7 38.1 99.8 90.4 309.8
03 21:40 8.2 90 7.54 6.6 4 4 1013.1 4 17.6 25.8 38.2 100.2 91.0 311.8
03 21:30 8.2 89 7.46 6.5 4 4 1013.1 4 17.4 25.6 37.9 99.3 89.9 308.0
03 21:20 8.3 89 7.5 6.6 4 4 1013.1 4 17.5 25.7 38.0 99.6 90.3 309.5
03 21:10 8.3 89 7.5 6.6 0 0 1013.1 3.8 17.5 25.7 38.0 99.6 90.3 309.5
03 21:00 8.3 88 7.42 6.4 4 6 1013.1 3.8 17.3 25.5 37.7 98.7 89.2 305.7
03 20:50 8.4 88 7.47 6.5 2 4 1013.1 3.4 17.4 25.6 37.8 99.1 89.8 307.6
03 20:40 8.5 88 7.52 6.6 6 6 1013.1 2.6 17.5 25.7 38.0 99.6 90.4 309.6
03 20:30 8.5 88 7.52 6.6 2 6 1013.1 2.4 17.5 25.7 38.0 99.6 90.4 309.6
03 20:20 8.5 87 7.43 6.4 6 6 1013.1 2 17.3 25.5 37.6 98.6 89.1 305.4
03 20:10 8.6 87 7.48 6.5 9 11 1013.1 1.8 17.4 25.6 37.8 99.0 89.7 307.3
03 20:00 8.7 87 7.53 6.7 13 26 1013.1 1.4 17.5 25.6 37.9 99.4 90.3 309.3
03 19:50 8.7 87 7.53 6.6 20 28 1013.1 1.2 17.5 25.6 37.9 99.4 90.3 309.3
03 19:40 8.8 86 7.49 6.6 17 22 1013.1 1 17.4 25.5 37.7 98.9 89.6 307.0
03 19:30 8.9 85 7.45 6.5 15 24 1013.1 1 17.3 25.4 37.5 98.3 88.9 304.7
03 19:20 9.1 83 7.37 6.3 15 19 1013.1 0.8 17.2 25.2 37.1 97.2 87.6 300.2
03 19:10 9.2 82 7.32 6.3 19 22 1013.1 0.6 17.1 25.1 36.8 96.5 86.9 297.5
03 19:00 9.3 82 7.37 6.4 17 30 1013.1 0.4 17.2 25.2 37.0 96.9 87.4 299.4
03 18:50 9.5 81 7.38 6.4 22 35 1013.1 0.4 17.2 25.1 36.9 96.8 87.3 299.1
03 18:40 10.1 81 7.66 7 20 26 1013.1 0.4 17.7 25.4 37.8 99.1 90.4 309.9
03 18:30 11 79 7.91 7.5 19 32 1013.1 0.4 18.2 25.6 38.4 100.6 92.7 318.1
03 18:20 11.3 76 7.75 7.2 13 15 1013.1 0.4 17.9 25.2 37.6 98.5 90.2 309.4
03 18:10 12.8 72 8.07 8 17 19 1013.1 0.4 18.5 25.3 38.2 100.1 92.6 318.2
03 18:00 13.2 71 8.15 8.1 11 22 1013.1 0.2 18.7 25.3 38.3 100.4 93.2 320.2
03 17:50 13.4 69 8.02 7.8 11 15 1013.1 0.2 18.4 25.1 37.7 98.8 91.3 313.5
03 17:40 13.5 68 7.95 7.7 13 17 1013.1 0.2 18.2 24.9 37.4 97.9 90.3 309.9
03 17:30 13.6 67 7.89 7.6 15 26 1013.1 0.2 18.1 24.8 37.1 97.2 89.4 306.8
03 17:20 13.6 68 8 7.8 11 15 1013.1 0.2 18.3 25.0 37.5 98.3 90.8 311.8
03 17:10 13.7 68 8.05 7.9 15 19 1013.1 0.2 18.4 25.0 37.7 98.7 91.3 313.7
03 17:00 13.7 67 7.93 7.7 13 24 1013.1 0.2 18.2 24.8 37.2 97.5 89.8 308.2
03 16:50 13.9 66 7.91 7.6 13 24 1013.1 0.2 18.1 24.8 37.0 97.0 89.3 306.6
03 16:40 14.1 65 7.89 7.6 13 15 1013.1 0.2 18.1 24.7 36.8 96.6 88.8 304.9
03 16:30 14.4 65 8.04 7.9 17 35 1013.1 0.2 18.4 24.8 37.3 97.8 90.4 310.5
03 16:20 14.5 65 8.08 8 15 20 1013.1 0.2 18.4 24.9 37.4 98.0 90.8 311.9
03 16:10 14.6 67 8.38 8.7 13 17 1013.1 0.2 19.1 25.3 38.5 101.1 94.5 325.0
03 16:00 14.4 68 8.41 8.6 17 26 1013.1 0.2 19.2 25.4 38.7 101.6 95.2 327.2
03 15:50 14.5 70 8.71 9.1 13 17 1013.1 0.2 19.8 25.9 39.9 104.7 98.9 340.5
03 15:40 14.2 72 8.79 9.2 17 20 1013.1 0.2 20.0 26.1 40.4 105.9 100.4 345.5
03 15:30 13.9 74 8.87 9.3 13 26 1013.1 0.2 20.2 26.3 40.8 107.2 101.8 350.5
03 15:20 13.8 75 8.94 9.4 11 13 1013.1 0.2 20.3 26.4 41.2 108.1 102.9 354.3
03 15:10 13.7 75 8.88 9.3 20 26 1013.1 0.2 20.2 26.4 41.0 107.6 102.2 351.9
03 15:00 13.7 76 9 9.6 19 28 1013.1 0.2 20.5 26.6 41.5 108.9 103.8 357.5
03 14:50 13.8 76 9.06 9.6 17 20 1013.1 0.2 20.6 26.6 41.7 109.4 104.5 359.9
03 14:40 13.7 77 9.12 9.7 13 19 1013.1 0.2 20.7 26.8 42.0 110.2 105.5 363.2
03 14:30 13.9 76 9.11 9.7 17 28 1013.1 0.2 20.7 26.7 41.8 109.8 105.1 361.8
03 14:20 14.1 77 9.35 10.1 17 22 1013.1 0.2 21.2 27.0 42.7 112.2 108.0 372.2
03 14:10 13.7 79 9.36 10.1 19 22 1013.1 0.2 21.2 27.2 42.9 112.8 108.7 374.5
03 14:00 13.5 84 9.83 10.9 17 26 1013.1 0.2 22.2 28.0 45.0 118.4 115.5 398.1
03 13:50 12.9 84 9.47 10.2 15 20 1013.1 0.2 21.5 27.6 43.8 115.2 111.4 383.7
03 13:40 12.9 82 9.24 10 15 20 1013.1 0.2 21.0 27.2 42.9 112.7 108.2 372.7
03 13:30 13.1 80 9.13 9.7 17 28 1013.1 0.2 20.8 27.0 42.3 111.2 106.4 366.5
03 13:20 13.4 78 9.07 9.6 13 17 1013.1 0.2 20.6 26.8 41.9 110.1 105.2 362.2
03 13:10 13.6 76 8.94 9.4 13 19 1013.1 0.2 20.3 26.5 41.3 108.4 103.2 355.2
03 13:00 14 73 8.81 9.2 20 32 1013.1 0 20.0 26.2 40.5 106.4 100.9 347.3
03 12:50 13.9 73 8.75 9.1 17 24 1013.1 0 19.9 26.1 40.3 105.9 100.2 345.0
03 12:40 14.6 68 8.51 8.9 22 35 1013.1 0 19.4 25.5 39.0 102.4 96.2 330.9
03 12:30 14.9 67 8.54 8.8 20 39 1013.1 0 19.4 25.5 39.0 102.4 96.2 331.0
03 12:20 15.2 67 8.7 9.1 13 19 1013.1 0 19.7 25.6 39.5 103.7 97.9 337.0
03 12:10 15.3 66 8.62 9 20 28 1013.1 0 19.6 25.5 39.1 102.7 96.8 333.0

Last Refresh: 04-Aug-2020 06:42:45

Most of the information presented on this site is sourced from the Bureau of Meteorology.  Copyright in all material sourced from the Bureau of Meteorology resides with the Commonwealth of Australia.